sensor_id;sensor_type;location;lat;lon;timestamp;pressure;altitude;pressure_sealevel;temperature;humidity
25526;BME280;13424;48.424;11.258;2023-02-12T00:01:15;97434.41;;;7.77;66.48
25526;BME280;13424;48.424;11.258;2023-02-12T00:03:42;97432.00;;;7.68;66.20
25526;BME280;13424;48.424;11.258;2023-02-12T00:06:09;97441.19;;;7.80;66.20
25526;BME280;13424;48.424;11.258;2023-02-12T00:08:36;97438.13;;;7.45;66.84
25526;BME280;13424;48.424;11.258;2023-02-12T00:11:12;97440.63;;;7.08;67.68
25526;BME280;13424;48.424;11.258;2023-02-12T00:13:38;97438.66;;;7.02;68.69
25526;BME280;13424;48.424;11.258;2023-02-12T00:16:10;97447.94;;;7.06;69.41
25526;BME280;13424;48.424;11.258;2023-02-12T00:18:36;97453.13;;;7.61;66.87
25526;BME280;13424;48.424;11.258;2023-02-12T00:21:03;97446.09;;;7.45;67.93
25526;BME280;13424;48.424;11.258;2023-02-12T00:23:29;97452.09;;;7.39;68.24
25526;BME280;13424;48.424;11.258;2023-02-12T00:25:54;97440.19;;;7.58;68.32
25526;BME280;13424;48.424;11.258;2023-02-12T00:28:20;97441.16;;;7.34;69.10
25526;BME280;13424;48.424;11.258;2023-02-12T00:30:46;97443.25;;;7.16;70.19
25526;BME280;13424;48.424;11.258;2023-02-12T00:33:12;97449.06;;;7.42;69.43
25526;BME280;13424;48.424;11.258;2023-02-12T00:35:38;97446.72;;;7.47;69.68
25526;BME280;13424;48.424;11.258;2023-02-12T00:38:04;97454.69;;;7.47;70.30
25526;BME280;13424;48.424;11.258;2023-02-12T00:40:29;97456.44;;;7.32;71.65
25526;BME280;13424;48.424;11.258;2023-02-12T00:42:55;97466.50;;;7.45;70.80
25526;BME280;13424;48.424;11.258;2023-02-12T00:45:22;97465.91;;;7.35;70.61
25526;BME280;13424;48.424;11.258;2023-02-12T00:47:49;97457.34;;;7.16;71.24
25526;BME280;13424;48.424;11.258;2023-02-12T00:50:24;97450.81;;;6.96;71.32
25526;BME280;13424;48.424;11.258;2023-02-12T00:52:50;97450.28;;;7.00;72.37
25526;BME280;13424;48.424;11.258;2023-02-12T00:55:16;97450.47;;;6.99;72.28
25526;BME280;13424;48.424;11.258;2023-02-12T00:57:42;97442.78;;;7.12;71.67
25526;BME280;13424;48.424;11.258;2023-02-12T01:00:09;97439.00;;;7.07;71.84
25526;BME280;13424;48.424;11.258;2023-02-12T01:02:36;97440.03;;;6.97;72.47
25526;BME280;13424;48.424;11.258;2023-02-12T01:05:02;97437.84;;;7.01;71.80
25526;BME280;13424;48.424;11.258;2023-02-12T01:07:28;97430.22;;;6.59;74.14
25526;BME280;13424;48.424;11.258;2023-02-12T01:09:56;97446.94;;;6.59;74.34
25526;BME280;13424;48.424;11.258;2023-02-12T01:12:22;97449.09;;;6.48;74.96
25526;BME280;13424;48.424;11.258;2023-02-12T01:14:47;97450.25;;;6.53;75.25
25526;BME280;13424;48.424;11.258;2023-02-12T01:17:13;97447.97;;;6.50;75.91
25526;BME280;13424;48.424;11.258;2023-02-12T01:19:41;97443.84;;;6.87;75.20
25526;BME280;13424;48.424;11.258;2023-02-12T01:22:07;97455.41;;;7.02;75.41
25526;BME280;13424;48.424;11.258;2023-02-12T01:24:33;97457.09;;;7.03;74.86
25526;BME280;13424;48.424;11.258;2023-02-12T01:26:58;97453.25;;;7.06;74.88
25526;BME280;13424;48.424;11.258;2023-02-12T01:29:24;97448.28;;;7.03;74.90
25526;BME280;13424;48.424;11.258;2023-02-12T01:31:50;97447.09;;;7.13;74.99
25526;BME280;13424;48.424;11.258;2023-02-12T01:34:16;97449.66;;;6.90;75.72
25526;BME280;13424;48.424;11.258;2023-02-12T01:36:42;97444.63;;;6.64;77.12
25526;BME280;13424;48.424;11.258;2023-02-12T01:39:10;97439.19;;;6.97;75.30
25526;BME280;13424;48.424;11.258;2023-02-12T01:41:41;97435.13;;;6.70;75.81
25526;BME280;13424;48.424;11.258;2023-02-12T01:44:18;97443.75;;;6.80;75.76
25526;BME280;13424;48.424;11.258;2023-02-12T01:46:48;97440.44;;;6.70;75.89
25526;BME280;13424;48.424;11.258;2023-02-12T01:51:50;97433.69;;;6.59;76.91
25526;BME280;13424;48.424;11.258;2023-02-12T01:54:21;97434.09;;;6.87;75.40
25526;BME280;13424;48.424;11.258;2023-02-12T01:56:50;97438.69;;;6.93;75.25
25526;BME280;13424;48.424;11.258;2023-02-12T01:59:16;97430.13;;;6.83;75.89
25526;BME280;13424;48.424;11.258;2023-02-12T02:01:44;97433.34;;;6.62;77.36
25526;BME280;13424;48.424;11.258;2023-02-12T02:04:14;97439.22;;;6.89;76.04
25526;BME280;13424;48.424;11.258;2023-02-12T02:06:58;97434.09;;;6.79;77.53
25526;BME280;13424;48.424;11.258;2023-02-12T02:09:24;97432.63;;;6.77;77.74
25526;BME280;13424;48.424;11.258;2023-02-12T02:11:54;97436.44;;;6.82;77.69
25526;BME280;13424;48.424;11.258;2023-02-12T02:14:41;97427.47;;;6.83;78.26
25526;BME280;13424;48.424;11.258;2023-02-12T02:17:43;97429.66;;;7.11;76.33
25526;BME280;13424;48.424;11.258;2023-02-12T02:20:55;97428.66;;;7.20;75.68
25526;BME280;13424;48.424;11.258;2023-02-12T02:23:38;97422.50;;;7.19;75.75
25526;BME280;13424;48.424;11.258;2023-02-12T02:29:52;97424.78;;;6.91;77.04
25526;BME280;13424;48.424;11.258;2023-02-12T02:32:42;97417.88;;;6.82;77.24
25526;BME280;13424;48.424;11.258;2023-02-12T02:35:28;97424.34;;;6.80;78.71
25526;BME280;13424;48.424;11.258;2023-02-12T02:41:10;97424.78;;;6.91;78.05
25526;BME280;13424;48.424;11.258;2023-02-12T02:43:43;97425.91;;;7.05;77.62
25526;BME280;13424;48.424;11.258;2023-02-12T02:46:30;97422.72;;;7.10;77.19
25526;BME280;13424;48.424;11.258;2023-02-12T02:49:06;97431.91;;;7.30;76.78
25526;BME280;13424;48.424;11.258;2023-02-12T02:51:40;97429.84;;;7.09;77.70
25526;BME280;13424;48.424;11.258;2023-02-12T02:54:19;97432.31;;;7.11;77.54
25526;BME280;13424;48.424;11.258;2023-02-12T02:56:48;97433.69;;;7.07;78.31
25526;BME280;13424;48.424;11.258;2023-02-12T02:59:21;97434.78;;;7.20;78.04
25526;BME280;13424;48.424;11.258;2023-02-12T03:02:20;97433.19;;;7.34;77.13
25526;BME280;13424;48.424;11.258;2023-02-12T03:05:02;97430.16;;;7.14;78.31
25526;BME280;13424;48.424;11.258;2023-02-12T03:07:43;97433.19;;;7.34;77.67
25526;BME280;13424;48.424;11.258;2023-02-12T03:10:20;97423.97;;;7.22;77.80
25526;BME280;13424;48.424;11.258;2023-02-12T03:15:50;97427.72;;;7.05;78.58
25526;BME280;13424;48.424;11.258;2023-02-12T03:18:41;97436.28;;;7.15;78.79
25526;BME280;13424;48.424;11.258;2023-02-12T03:21:18;97439.25;;;7.20;77.68
25526;BME280;13424;48.424;11.258;2023-02-12T03:24:02;97440.00;;;7.06;78.66
25526;BME280;13424;48.424;11.258;2023-02-12T03:27:06;97436.72;;;6.95;78.85
25526;BME280;13424;48.424;11.258;2023-02-12T03:29:33;97440.69;;;6.91;79.18
25526;BME280;13424;48.424;11.258;2023-02-12T03:32:12;97439.38;;;6.95;79.14
25526;BME280;13424;48.424;11.258;2023-02-12T03:35:09;97444.00;;;6.93;79.30
25526;BME280;13424;48.424;11.258;2023-02-12T03:40:36;97451.34;;;7.22;78.17
25526;BME280;13424;48.424;11.258;2023-02-12T03:43:29;97442.66;;;7.06;78.66
25526;BME280;13424;48.424;11.258;2023-02-12T03:46:26;97446.78;;;7.08;78.68
25526;BME280;13424;48.424;11.258;2023-02-12T03:49:09;97440.34;;;6.94;79.12
25526;BME280;13424;48.424;11.258;2023-02-12T03:51:39;97435.75;;;6.88;79.42
25526;BME280;13424;48.424;11.258;2023-02-12T03:54:08;97448.69;;;6.83;79.72
25526;BME280;13424;48.424;11.258;2023-02-12T03:56:44;97449.66;;;6.90;79.55
25526;BME280;13424;48.424;11.258;2023-02-12T03:59:13;97456.31;;;6.78;79.70
25526;BME280;13424;48.424;11.258;2023-02-12T04:01:39;97457.16;;;6.70;79.79
25526;BME280;13424;48.424;11.258;2023-02-12T04:04:07;97466.25;;;6.84;79.48
25526;BME280;13424;48.424;11.258;2023-02-12T04:06:34;97462.53;;;7.02;79.12
25526;BME280;13424;48.424;11.258;2023-02-12T04:09:04;97463.72;;;6.99;78.91
25526;BME280;13424;48.424;11.258;2023-02-12T04:12:08;97467.53;;;7.05;78.04
25526;BME280;13424;48.424;11.258;2023-02-12T04:14:44;97473.69;;;6.97;78.26
25526;BME280;13424;48.424;11.258;2023-02-12T04:17:48;97473.00;;;6.95;78.66
25526;BME280;13424;48.424;11.258;2023-02-12T04:20:33;97469.50;;;7.03;78.14
25526;BME280;13424;48.424;11.258;2023-02-12T04:23:16;97473.72;;;6.89;78.28
25526;BME280;13424;48.424;11.258;2023-02-12T04:34:49;97482.75;;;7.19;76.93
25526;BME280;13424;48.424;11.258;2023-02-12T04:37:31;97477.47;;;7.03;77.73
25526;BME280;13424;48.424;11.258;2023-02-12T04:40:02;97475.03;;;6.85;78.26
25526;BME280;13424;48.424;11.258;2023-02-12T04:42:28;97480.88;;;6.80;78.62
25526;BME280;13424;48.424;11.258;2023-02-12T04:48:31;97486.22;;;6.48;79.76
25526;BME280;13424;48.424;11.258;2023-02-12T04:50:59;97481.06;;;6.62;78.93
25526;BME280;13424;48.424;11.258;2023-02-12T04:53:25;97489.50;;;6.74;78.93
25526;BME280;13424;48.424;11.258;2023-02-12T04:55:51;97482.56;;;6.73;78.92
25526;BME280;13424;48.424;11.258;2023-02-12T04:58:17;97483.53;;;6.80;78.73
25526;BME280;13424;48.424;11.258;2023-02-12T05:00:43;97486.78;;;6.98;77.77
25526;BME280;13424;48.424;11.258;2023-02-12T05:03:09;97486.44;;;7.02;77.65
25526;BME280;13424;48.424;11.258;2023-02-12T05:05:35;97489.44;;;6.98;77.46
25526;BME280;13424;48.424;11.258;2023-02-12T05:08:01;97487.75;;;7.06;77.45
25526;BME280;13424;48.424;11.258;2023-02-12T05:10:32;97483.16;;;6.91;77.96
25526;BME280;13424;48.424;11.258;2023-02-12T05:12:58;97472.63;;;6.67;79.37
25526;BME280;13424;48.424;11.258;2023-02-12T05:15:24;97481.31;;;6.92;78.71
25526;BME280;13424;48.424;11.258;2023-02-12T05:17:56;97478.19;;;6.88;78.83
25526;BME280;13424;48.424;11.258;2023-02-12T05:20:21;97481.88;;;6.71;79.01
25526;BME280;13424;48.424;11.258;2023-02-12T05:22:52;97489.34;;;6.76;78.77
25526;BME280;13424;48.424;11.258;2023-02-12T05:25:19;97492.47;;;6.71;79.28
25526;BME280;13424;48.424;11.258;2023-02-12T05:27:45;97499.47;;;6.64;79.57
25526;BME280;13424;48.424;11.258;2023-02-12T05:30:11;97492.16;;;6.74;79.82
25526;BME280;13424;48.424;11.258;2023-02-12T05:32:37;97500.13;;;6.74;79.88
25526;BME280;13424;48.424;11.258;2023-02-12T05:35:03;97506.66;;;7.03;78.89
25526;BME280;13424;48.424;11.258;2023-02-12T05:37:29;97497.25;;;6.92;78.46
25526;BME280;13424;48.424;11.258;2023-02-12T05:39:56;97500.06;;;6.98;77.97
25526;BME280;13424;48.424;11.258;2023-02-12T05:42:21;97501.63;;;7.16;77.72
25526;BME280;13424;48.424;11.258;2023-02-12T05:44:48;97509.63;;;7.08;76.99
25526;BME280;13424;48.424;11.258;2023-02-12T05:47:14;97515.78;;;7.00;77.78
25526;BME280;13424;48.424;11.258;2023-02-12T05:49:40;97511.50;;;6.99;77.90
25526;BME280;13424;48.424;11.258;2023-02-12T05:52:07;97514.97;;;6.99;78.05
25526;BME280;13424;48.424;11.258;2023-02-12T05:54:33;97511.97;;;7.03;78.22
25526;BME280;13424;48.424;11.258;2023-02-12T05:56:59;97514.31;;;6.97;78.46
25526;BME280;13424;48.424;11.258;2023-02-12T05:59:24;97514.34;;;6.81;79.24
25526;BME280;13424;48.424;11.258;2023-02-12T06:01:51;97514.50;;;6.88;78.90
25526;BME280;13424;48.424;11.258;2023-02-12T06:04:24;97510.91;;;6.72;78.95
25526;BME280;13424;48.424;11.258;2023-02-12T06:06:51;97517.50;;;6.77;79.78
25526;BME280;13424;48.424;11.258;2023-02-12T06:09:17;97504.41;;;6.75;78.81
25526;BME280;13424;48.424;11.258;2023-02-12T06:11:43;97515.00;;;6.91;78.43
25526;BME280;13424;48.424;11.258;2023-02-12T06:14:13;97516.38;;;6.63;79.88
25526;BME280;13424;48.424;11.258;2023-02-12T06:16:39;97515.91;;;6.43;80.96
25526;BME280;13424;48.424;11.258;2023-02-12T06:19:05;97511.03;;;6.79;79.77
25526;BME280;13424;48.424;11.258;2023-02-12T06:21:32;97520.69;;;6.72;79.82
25526;BME280;13424;48.424;11.258;2023-02-12T06:23:58;97516.34;;;6.71;80.08
25526;BME280;13424;48.424;11.258;2023-02-12T06:26:25;97517.81;;;6.90;79.02
25526;BME280;13424;48.424;11.258;2023-02-12T06:28:51;97523.31;;;6.88;78.98
25526;BME280;13424;48.424;11.258;2023-02-12T06:31:33;97527.91;;;6.94;78.95
25526;BME280;13424;48.424;11.258;2023-02-12T06:34:06;97529.22;;;7.07;78.72
25526;BME280;13424;48.424;11.258;2023-02-12T06:36:33;97532.88;;;7.06;78.57
25526;BME280;13424;48.424;11.258;2023-02-12T06:39:01;97528.78;;;7.26;77.70
25526;BME280;13424;48.424;11.258;2023-02-12T06:41:27;97526.94;;;6.79;79.51
25526;BME280;13424;48.424;11.258;2023-02-12T06:43:54;97522.63;;;6.86;79.85
25526;BME280;13424;48.424;11.258;2023-02-12T06:46:19;97533.19;;;7.03;78.88
25526;BME280;13424;48.424;11.258;2023-02-12T06:48:45;97528.06;;;7.01;78.62
25526;BME280;13424;48.424;11.258;2023-02-12T06:51:17;97541.91;;;6.72;79.84
25526;BME280;13424;48.424;11.258;2023-02-12T06:53:46;97540.38;;;6.78;80.16
25526;BME280;13424;48.424;11.258;2023-02-12T06:56:13;97538.06;;;6.83;80.24
25526;BME280;13424;48.424;11.258;2023-02-12T06:58:41;97536.84;;;7.02;79.44
25526;BME280;13424;48.424;11.258;2023-02-12T07:01:15;97546.72;;;7.24;78.35
25526;BME280;13424;48.424;11.258;2023-02-12T07:04:02;97537.53;;;6.95;79.37
25526;BME280;13424;48.424;11.258;2023-02-12T07:06:30;97545.06;;;7.31;78.40
25526;BME280;13424;48.424;11.258;2023-02-12T07:08:56;97537.75;;;7.25;78.60
25526;BME280;13424;48.424;11.258;2023-02-12T07:11:24;97533.88;;;6.96;79.58
25526;BME280;13424;48.424;11.258;2023-02-12T07:13:50;97534.63;;;7.30;78.79
25526;BME280;13424;48.424;11.258;2023-02-12T07:16:16;97538.44;;;7.58;77.27
25526;BME280;13424;48.424;11.258;2023-02-12T07:18:43;97541.19;;;6.78;80.31
25526;BME280;13424;48.424;11.258;2023-02-12T07:21:10;97540.88;;;7.37;78.55
25526;BME280;13424;48.424;11.258;2023-02-12T07:23:36;97532.44;;;7.33;78.73
25526;BME280;13424;48.424;11.258;2023-02-12T07:26:07;97523.69;;;7.55;78.09
25526;BME280;13424;48.424;11.258;2023-02-12T07:28:33;97524.31;;;7.35;79.29
25526;BME280;13424;48.424;11.258;2023-02-12T07:31:15;97511.22;;;7.25;80.26
25526;BME280;13424;48.424;11.258;2023-02-12T07:33:41;97519.47;;;7.69;78.63
25526;BME280;13424;48.424;11.258;2023-02-12T07:36:12;97520.34;;;7.93;77.08
25526;BME280;13424;48.424;11.258;2023-02-12T07:38:38;97516.03;;;7.30;79.08
25526;BME280;13424;48.424;11.258;2023-02-12T07:41:12;97517.44;;;7.48;78.28
25526;BME280;13424;48.424;11.258;2023-02-12T07:43:52;97519.72;;;7.20;79.35
25526;BME280;13424;48.424;11.258;2023-02-12T07:46:23;97522.09;;;7.77;77.48
25526;BME280;13424;48.424;11.258;2023-02-12T07:48:51;97518.81;;;7.98;76.77
25526;BME280;13424;48.424;11.258;2023-02-12T07:51:17;97525.09;;;7.97;76.34
25526;BME280;13424;48.424;11.258;2023-02-12T07:53:43;97532.31;;;7.57;78.76
25526;BME280;13424;48.424;11.258;2023-02-12T07:56:17;97525.63;;;7.70;78.66
25526;BME280;13424;48.424;11.258;2023-02-12T07:58:44;97516.84;;;7.92;77.24
25526;BME280;13424;48.424;11.258;2023-02-12T08:03:47;97518.69;;;8.15;76.72
25526;BME280;13424;48.424;11.258;2023-02-12T08:06:17;97528.81;;;7.88;78.32
25526;BME280;13424;48.424;11.258;2023-02-12T08:08:47;97525.16;;;7.89;77.97
25526;BME280;13424;48.424;11.258;2023-02-12T08:11:15;97531.47;;;8.42;76.40
25526;BME280;13424;48.424;11.258;2023-02-12T08:13:42;97519.91;;;8.27;76.68
25526;BME280;13424;48.424;11.258;2023-02-12T08:16:12;97523.88;;;8.31;77.04
25526;BME280;13424;48.424;11.258;2023-02-12T08:18:38;97540.81;;;8.38;75.85
25526;BME280;13424;48.424;11.258;2023-02-12T08:21:25;97538.63;;;8.79;75.14
25526;BME280;13424;48.424;11.258;2023-02-12T08:24:09;97537.13;;;8.77;75.15
25526;BME280;13424;48.424;11.258;2023-02-12T08:26:37;97534.84;;;8.74;74.82
25526;BME280;13424;48.424;11.258;2023-02-12T08:29:10;97539.28;;;8.96;74.16
25526;BME280;13424;48.424;11.258;2023-02-12T08:31:42;97542.31;;;8.93;74.13
25526;BME280;13424;48.424;11.258;2023-02-12T08:37:08;97547.72;;;8.47;76.61
25526;BME280;13424;48.424;11.258;2023-02-12T08:39:33;97548.72;;;8.46;76.67
25526;BME280;13424;48.424;11.258;2023-02-12T08:41:59;97539.84;;;8.54;76.98
25526;BME280;13424;48.424;11.258;2023-02-12T08:44:26;97542.72;;;8.67;76.52
25526;BME280;13424;48.424;11.258;2023-02-12T08:46:53;97536.16;;;9.22;74.84
25526;BME280;13424;48.424;11.258;2023-02-12T08:49:26;97541.38;;;9.15;75.17
25526;BME280;13424;48.424;11.258;2023-02-12T08:51:55;97542.75;;;8.82;76.28
25526;BME280;13424;48.424;11.258;2023-02-12T08:54:24;97541.56;;;8.99;76.28
25526;BME280;13424;48.424;11.258;2023-02-12T08:56:58;97546.81;;;9.37;74.97
25526;BME280;13424;48.424;11.258;2023-02-12T08:59:24;97551.75;;;9.40;75.18
25526;BME280;13424;48.424;11.258;2023-02-12T09:01:51;97537.91;;;9.30;75.16
25526;BME280;13424;48.424;11.258;2023-02-12T09:04:21;97546.41;;;9.69;73.73
25526;BME280;13424;48.424;11.258;2023-02-12T09:06:48;97550.50;;;9.36;75.35
25526;BME280;13424;48.424;11.258;2023-02-12T09:13:21;97547.81;;;9.65;74.26
25526;BME280;13424;48.424;11.258;2023-02-12T09:15:48;97535.31;;;9.66;74.18
25526;BME280;13424;48.424;11.258;2023-02-12T09:18:14;97543.09;;;9.67;75.09
25526;BME280;13424;48.424;11.258;2023-02-12T09:20:42;97545.97;;;9.66;74.69
25526;BME280;13424;48.424;11.258;2023-02-12T09:23:10;97541.63;;;9.79;74.88
25526;BME280;13424;48.424;11.258;2023-02-12T09:25:49;97540.97;;;9.77;75.31
25526;BME280;13424;48.424;11.258;2023-02-12T09:28:14;97536.16;;;9.51;76.10
25526;BME280;13424;48.424;11.258;2023-02-12T09:30:40;97547.91;;;10.29;74.11
25526;BME280;13424;48.424;11.258;2023-02-12T09:33:06;97554.47;;;10.27;73.90
25526;BME280;13424;48.424;11.258;2023-02-12T09:35:37;97549.16;;;10.12;73.41
25526;BME280;13424;48.424;11.258;2023-02-12T09:38:04;97550.53;;;10.23;75.25
25526;BME280;13424;48.424;11.258;2023-02-12T09:41:09;97552.44;;;10.29;74.69
25526;BME280;13424;48.424;11.258;2023-02-12T09:46:51;97551.97;;;10.68;72.83
25526;BME280;13424;48.424;11.258;2023-02-12T09:52:29;97548.00;;;10.85;72.98
25526;BME280;13424;48.424;11.258;2023-02-12T09:54:55;97544.53;;;10.63;73.28
25526;BME280;13424;48.424;11.258;2023-02-12T09:57:29;97548.09;;;10.99;72.43
25526;BME280;13424;48.424;11.258;2023-02-12T10:00:27;97551.91;;;10.89;72.80
25526;BME280;13424;48.424;11.258;2023-02-12T10:03:00;97551.97;;;10.96;72.30
25526;BME280;13424;48.424;11.258;2023-02-12T10:05:36;97550.22;;;11.10;71.77
25526;BME280;13424;48.424;11.258;2023-02-12T10:08:43;97556.00;;;11.89;69.55
25526;BME280;13424;48.424;11.258;2023-02-12T10:26:10;97560.81;;;11.66;69.24
25526;BME280;13424;48.424;11.258;2023-02-12T10:32:36;97567.81;;;12.15;69.06
25526;BME280;13424;48.424;11.258;2023-02-12T10:35:15;97574.47;;;11.84;70.42
25526;BME280;13424;48.424;11.258;2023-02-12T10:38:04;97569.91;;;12.26;67.92
25526;BME280;13424;48.424;11.258;2023-02-12T10:40:32;97560.28;;;12.58;67.03
25526;BME280;13424;48.424;11.258;2023-02-12T10:43:00;97563.28;;;12.22;68.15
25526;BME280;13424;48.424;11.258;2023-02-12T10:45:33;97563.91;;;12.11;68.63
25526;BME280;13424;48.424;11.258;2023-02-12T10:48:18;97562.69;;;11.03;71.28
25526;BME280;13424;48.424;11.258;2023-02-12T10:51:10;97558.78;;;10.99;71.49
25526;BME280;13424;48.424;11.258;2023-02-12T10:53:43;97564.25;;;11.94;68.61
25526;BME280;13424;48.424;11.258;2023-02-12T10:56:21;97562.44;;;11.67;68.95
25526;BME280;13424;48.424;11.258;2023-02-12T11:01:50;97566.00;;;12.28;67.72
25526;BME280;13424;48.424;11.258;2023-02-12T11:04:31;97565.78;;;12.17;67.63
25526;BME280;13424;48.424;11.258;2023-02-12T11:07:06;97560.34;;;11.56;70.37
25526;BME280;13424;48.424;11.258;2023-02-12T11:09:43;97558.38;;;11.02;72.25
25526;BME280;13424;48.424;11.258;2023-02-12T11:12:32;97562.25;;;10.71;72.49
25526;BME280;13424;48.424;11.258;2023-02-12T11:15:25;97552.34;;;11.21;70.39
25526;BME280;13424;48.424;11.258;2023-02-12T11:18:06;97552.84;;;10.75;71.46
25526;BME280;13424;48.424;11.258;2023-02-12T11:20:48;97554.50;;;11.39;69.89
25526;BME280;13424;48.424;11.258;2023-02-12T11:23:29;97550.84;;;11.12;70.92
25526;BME280;13424;48.424;11.258;2023-02-12T11:29:21;97554.13;;;11.42;70.38
25526;BME280;13424;48.424;11.258;2023-02-12T11:32:05;97547.28;;;10.98;71.42
25526;BME280;13424;48.424;11.258;2023-02-12T11:34:34;97543.06;;;10.89;71.97
25526;BME280;13424;48.424;11.258;2023-02-12T11:37:00;97551.97;;;10.68;71.27
25526;BME280;13424;48.424;11.258;2023-02-12T11:39:32;97552.00;;;11.37;69.25
25526;BME280;13424;48.424;11.258;2023-02-12T11:42:02;97547.19;;;10.85;71.97
25526;BME280;13424;48.424;11.258;2023-02-12T11:44:37;97542.66;;;10.85;70.54
25526;BME280;13424;48.424;11.258;2023-02-12T11:47:15;97545.53;;;11.18;71.74
25526;BME280;13424;48.424;11.258;2023-02-12T11:50:04;97542.97;;;11.80;67.85
25526;BME280;13424;48.424;11.258;2023-02-12T11:52:35;97541.31;;;11.37;68.20
25526;BME280;13424;48.424;11.258;2023-02-12T11:55:17;97540.59;;;11.50;68.71
25526;BME280;13424;48.424;11.258;2023-02-12T11:57:48;97540.81;;;11.96;65.61
25526;BME280;13424;48.424;11.258;2023-02-12T12:00:28;97533.84;;;11.54;68.23
25526;BME280;13424;48.424;11.258;2023-02-12T12:03:20;97537.56;;;12.21;66.21
25526;BME280;13424;48.424;11.258;2023-02-12T12:06:18;97536.84;;;11.44;70.68
25526;BME280;13424;48.424;11.258;2023-02-12T12:09:23;97531.81;;;12.24;67.75
25526;BME280;13424;48.424;11.258;2023-02-12T12:12:24;97530.59;;;12.40;66.48
25526;BME280;13424;48.424;11.258;2023-02-12T12:15:14;97526.09;;;12.40;67.16
25526;BME280;13424;48.424;11.258;2023-02-12T12:24:25;97536.53;;;12.09;66.04
25526;BME280;13424;48.424;11.258;2023-02-12T12:27:03;97529.31;;;12.02;66.40
25526;BME280;13424;48.424;11.258;2023-02-12T12:29:51;97529.69;;;11.99;66.15
25526;BME280;13424;48.424;11.258;2023-02-12T12:32:20;97522.16;;;11.27;69.30
25526;BME280;13424;48.424;11.258;2023-02-12T12:34:47;97531.50;;;11.44;67.56
25526;BME280;13424;48.424;11.258;2023-02-12T12:46:08;97514.69;;;12.05;66.59
25526;BME280;13424;48.424;11.258;2023-02-12T12:49:38;97509.47;;;11.36;67.20
25526;BME280;13424;48.424;11.258;2023-02-12T12:55:42;97511.63;;;12.01;65.39
25526;BME280;13424;48.424;11.258;2023-02-12T12:58:22;97501.88;;;11.33;67.75
25526;BME280;13424;48.424;11.258;2023-02-12T13:01:19;97516.50;;;11.91;67.04
25526;BME280;13424;48.424;11.258;2023-02-12T13:06:55;97509.50;;;11.90;67.79
25526;BME280;13424;48.424;11.258;2023-02-12T13:09:58;97500.66;;;11.90;66.22
25526;BME280;13424;48.424;11.258;2023-02-12T13:12:54;97494.34;;;12.24;64.98
25526;BME280;13424;48.424;11.258;2023-02-12T13:21:45;97511.19;;;12.05;64.95
25526;BME280;13424;48.424;11.258;2023-02-12T13:26:57;97501.41;;;11.70;66.71
25526;BME280;13424;48.424;11.258;2023-02-12T13:32:48;97499.63;;;11.84;65.89
25526;BME280;13424;48.424;11.258;2023-02-12T13:35:20;97498.03;;;11.49;66.23
25526;BME280;13424;48.424;11.258;2023-02-12T13:37:53;97488.53;;;11.39;66.57
25526;BME280;13424;48.424;11.258;2023-02-12T13:40:31;97491.53;;;11.23;66.84
25526;BME280;13424;48.424;11.258;2023-02-12T13:51:52;97486.13;;;10.75;68.26
25526;BME280;13424;48.424;11.258;2023-02-12T13:54:28;97480.38;;;11.13;66.98
25526;BME280;13424;48.424;11.258;2023-02-12T13:57:16;97474.47;;;10.89;68.42
25526;BME280;13424;48.424;11.258;2023-02-12T13:59:48;97487.00;;;11.17;67.83
25526;BME280;13424;48.424;11.258;2023-02-12T14:02:24;97480.81;;;11.16;68.17
25526;BME280;13424;48.424;11.258;2023-02-12T14:05:01;97484.47;;;11.50;66.94
25526;BME280;13424;48.424;11.258;2023-02-12T14:07:44;97490.97;;;11.82;66.10
25526;BME280;13424;48.424;11.258;2023-02-12T14:12:49;97486.50;;;12.02;65.33
25526;BME280;13424;48.424;11.258;2023-02-12T14:15:26;97479.53;;;12.01;64.63
25526;BME280;13424;48.424;11.258;2023-02-12T14:18:30;97477.00;;;11.87;65.49
25526;BME280;13424;48.424;11.258;2023-02-12T14:23:41;97486.38;;;11.63;65.75
25526;BME280;13424;48.424;11.258;2023-02-12T14:26:10;97469.94;;;11.72;65.58
25526;BME280;13424;48.424;11.258;2023-02-12T14:33:45;97480.47;;;11.26;66.68
25526;BME280;13424;48.424;11.258;2023-02-12T14:36:36;97473.97;;;10.45;69.23
25526;BME280;13424;48.424;11.258;2023-02-12T14:39:27;97470.03;;;10.41;68.16
25526;BME280;13424;48.424;11.258;2023-02-12T14:44:56;97471.69;;;10.42;68.75
25526;BME280;13424;48.424;11.258;2023-02-12T14:49:55;97466.47;;;11.24;67.18
25526;BME280;13424;48.424;11.258;2023-02-12T14:52:26;97475.38;;;11.92;65.42
25526;BME280;13424;48.424;11.258;2023-02-12T14:54:55;97475.53;;;11.23;67.19
25526;BME280;13424;48.424;11.258;2023-02-12T14:57:34;97470.19;;;11.23;67.41
25526;BME280;13424;48.424;11.258;2023-02-12T15:02:41;97469.84;;;11.39;66.04
25526;BME280;13424;48.424;11.258;2023-02-12T15:05:31;97476.00;;;10.71;68.03
25526;BME280;13424;48.424;11.258;2023-02-12T15:08:05;97465.94;;;11.01;67.62
25526;BME280;13424;48.424;11.258;2023-02-12T15:10:46;97461.22;;;11.03;66.58
25526;BME280;13424;48.424;11.258;2023-02-12T15:13:48;97467.44;;;10.82;67.16
25526;BME280;13424;48.424;11.258;2023-02-12T15:22:41;97461.72;;;9.86;69.31
25526;BME280;13424;48.424;11.258;2023-02-12T15:28:19;97449.47;;;10.34;67.98
25526;BME280;13424;48.424;11.258;2023-02-12T15:30:46;97446.59;;;10.64;67.46
25526;BME280;13424;48.424;11.258;2023-02-12T15:33:23;97454.41;;;10.94;66.57
25526;BME280;13424;48.424;11.258;2023-02-12T15:35:51;97450.88;;;10.86;66.40
25526;BME280;13424;48.424;11.258;2023-02-12T15:38:27;97447.78;;;10.55;67.11
25526;BME280;13424;48.424;11.258;2023-02-12T15:40:57;97450.81;;;10.24;68.27
25526;BME280;13424;48.424;11.258;2023-02-12T15:43:27;97453.84;;;9.78;69.42
25526;BME280;13424;48.424;11.258;2023-02-12T15:45:54;97446.31;;;9.45;70.32
25526;BME280;13424;48.424;11.258;2023-02-12T15:48:22;97448.06;;;9.74;69.38
25526;BME280;13424;48.424;11.258;2023-02-12T15:53:31;97439.75;;;9.63;69.50